createdAt,value
2023-02-11T00:00:41.105Z,0.17
2023-02-11T00:02:47.722Z,0.17
2023-02-11T00:04:51.048Z,0.13
2023-02-11T00:06:56.209Z,0.07
2023-02-11T00:08:59.575Z,0.02
2023-02-11T00:11:02.719Z,0.00
2023-02-11T00:13:05.737Z,-0.06
2023-02-11T00:15:09.767Z,-0.08
2023-02-11T00:17:12.814Z,-0.12
2023-02-11T00:19:15.964Z,-0.14
2023-02-11T00:21:21.303Z,-0.16
2023-02-11T00:23:25.759Z,-0.17
2023-02-11T00:25:28.918Z,-0.17
2023-02-11T00:27:32.074Z,-0.20
2023-02-11T00:29:35.382Z,-0.17
2023-02-11T00:31:39.779Z,-0.15
2023-02-11T00:33:43.437Z,-0.14
2023-02-11T00:35:46.658Z,-0.16
2023-02-11T00:37:49.732Z,-0.14
2023-02-11T00:39:54.247Z,-0.16
2023-02-11T00:41:57.424Z,-0.10
2023-02-11T00:44:00.679Z,-0.13
2023-02-11T00:46:04.158Z,-0.15
2023-02-11T00:48:07.550Z,-0.18
2023-02-11T00:50:10.726Z,-0.19
2023-02-11T00:52:13.790Z,-0.20
2023-02-11T00:54:16.845Z,-0.20
2023-02-11T00:56:21.402Z,-0.18
2023-02-11T00:58:25.433Z,-0.19
2023-02-11T01:00:28.581Z,-0.21
2023-02-11T01:02:31.638Z,-0.24
2023-02-11T01:04:34.764Z,-0.26
2023-02-11T01:06:37.874Z,-0.26
2023-02-11T01:08:41.889Z,-0.31
2023-02-11T01:10:45.009Z,-0.29
2023-02-11T01:12:49.464Z,-0.26
2023-02-11T01:14:52.510Z,-0.29
2023-02-11T01:16:55.847Z,-0.30
2023-02-11T01:18:59.524Z,-0.31
2023-02-11T01:21:02.583Z,-0.33
2023-02-11T01:23:05.863Z,-0.36
2023-02-11T01:25:09.386Z,-0.38
2023-02-11T01:27:12.453Z,-0.34
2023-02-11T01:29:16.901Z,-0.35
2023-02-11T01:31:19.901Z,-0.31
2023-02-11T01:33:23.518Z,-0.35
2023-02-11T01:35:26.575Z,-0.35
2023-02-11T01:37:29.586Z,-0.36
2023-02-11T01:39:34.989Z,-0.38
2023-02-11T01:41:38.126Z,-0.34
2023-02-11T01:43:43.143Z,-0.35
2023-02-11T01:46:08.031Z,-0.37
2023-02-11T01:48:13.762Z,-0.43
2023-02-11T01:50:17.069Z,-0.35
2023-02-11T01:52:23.817Z,-0.34
2023-02-11T01:54:47.642Z,-0.35
2023-02-11T01:57:11.831Z,-0.35
2023-02-11T01:59:19.921Z,-0.31
2023-02-11T02:01:26.169Z,-0.30
2023-02-11T02:03:30.054Z,-0.27
2023-02-11T02:05:36.186Z,-0.29
2023-02-11T02:07:44.070Z,-0.35
2023-02-11T02:09:51.173Z,-0.29
2023-02-11T02:11:54.465Z,-0.26
2023-02-11T02:13:57.549Z,-0.23
2023-02-11T02:16:02.202Z,-0.19
2023-02-11T02:18:21.380Z,-0.12
2023-02-11T02:21:01.009Z,-0.07
2023-02-11T02:23:26.708Z,0.01
2023-02-11T02:25:42.418Z,0.05
2023-02-11T02:27:53.336Z,0.07
2023-02-11T02:30:18.080Z,0.11
2023-02-11T02:32:31.471Z,0.14
2023-02-11T02:34:39.115Z,0.13
2023-02-11T02:36:45.207Z,0.13
2023-02-11T02:38:54.349Z,0.12
2023-02-11T02:41:00.814Z,0.13
2023-02-11T02:43:04.534Z,0.13
2023-02-11T02:45:09.196Z,0.12
2023-02-11T02:47:12.164Z,0.08
2023-02-11T02:49:18.381Z,0.06
2023-02-11T02:51:32.738Z,0.08
2023-02-11T02:53:45.313Z,0.11
2023-02-11T02:56:01.571Z,0.14
2023-02-11T02:58:20.391Z,0.18
2023-02-11T03:00:26.849Z,0.23
2023-02-11T03:02:32.839Z,0.25
2023-02-11T03:04:41.611Z,0.29
2023-02-11T03:06:49.874Z,0.32
2023-02-11T03:08:58.769Z,0.33
2023-02-11T03:11:02.945Z,0.34
2023-02-11T03:13:06.505Z,0.39
2023-02-11T03:15:10.600Z,0.40
2023-02-11T03:17:15.501Z,0.41
2023-02-11T03:19:21.127Z,0.42
2023-02-11T03:21:26.081Z,0.42
2023-02-11T03:23:30.716Z,0.38
2023-02-11T03:25:37.456Z,0.38
2023-02-11T03:27:44.918Z,0.42
2023-02-11T03:29:54.220Z,0.42
2023-02-11T03:32:02.280Z,0.42
2023-02-11T03:34:09.724Z,0.39
2023-02-11T03:36:17.718Z,0.43
2023-02-11T03:38:23.887Z,0.45
2023-02-11T03:40:28.977Z,0.47
2023-02-11T03:42:35.656Z,0.48
2023-02-11T03:44:42.063Z,0.53
2023-02-11T03:46:49.540Z,0.56
2023-02-11T03:48:53.740Z,0.57
2023-02-11T03:50:58.422Z,0.59
2023-02-11T03:53:03.055Z,0.62
2023-02-11T03:55:11.120Z,0.65
2023-02-11T03:57:14.137Z,0.68
2023-02-11T03:59:17.169Z,0.69
2023-02-11T04:01:20.237Z,0.74
2023-02-11T04:03:23.338Z,0.72
2023-02-11T04:05:26.392Z,0.71
2023-02-11T04:07:29.626Z,0.75
2023-02-11T04:09:33.055Z,0.75
2023-02-11T04:11:37.644Z,0.79
2023-02-11T04:13:40.728Z,0.80
2023-02-11T04:15:43.828Z,0.84
2023-02-11T04:17:46.933Z,0.84
2023-02-11T04:19:50.044Z,0.85
2023-02-11T04:21:53.073Z,0.91
2023-02-11T04:23:56.135Z,0.93
2023-02-11T04:25:59.797Z,0.94
2023-02-11T04:28:04.279Z,0.97
2023-02-11T04:30:08.779Z,0.98
2023-02-11T04:32:12.364Z,1.00
2023-02-11T04:34:15.513Z,1.03
2023-02-11T04:36:18.586Z,1.04
2023-02-11T04:38:24.083Z,1.06
2023-02-11T04:40:27.178Z,1.11
2023-02-11T04:42:30.198Z,1.15
2023-02-11T04:44:34.672Z,1.16
2023-02-11T04:46:37.803Z,1.19
2023-02-11T04:48:40.899Z,1.15
2023-02-11T04:50:43.992Z,1.20
2023-02-11T04:52:46.930Z,1.19
2023-02-11T04:54:50.053Z,1.19
2023-02-11T04:56:53.081Z,1.19
2023-02-11T04:58:56.083Z,1.23
2023-02-11T05:01:08.184Z,1.23
2023-02-11T05:03:11.380Z,1.24
2023-02-11T05:05:14.459Z,1.25
2023-02-11T05:07:17.472Z,1.24
2023-02-11T05:09:20.557Z,1.28
2023-02-11T05:11:25.488Z,1.27
2023-02-11T05:13:28.606Z,1.31
2023-02-11T05:15:31.744Z,1.28
2023-02-11T05:17:38.389Z,1.30
2023-02-11T05:19:42.715Z,1.26
2023-02-11T05:22:01.347Z,1.30
2023-02-11T05:24:05.567Z,1.31
2023-02-11T05:26:09.141Z,1.31
2023-02-11T05:28:12.196Z,1.31
2023-02-11T05:30:15.576Z,1.34
2023-02-11T05:32:18.660Z,1.35
2023-02-11T05:34:23.097Z,1.35
2023-02-11T05:36:26.113Z,1.37
2023-02-11T05:38:29.388Z,1.39
2023-02-11T05:40:32.476Z,1.42
2023-02-11T05:42:35.537Z,1.45
2023-02-11T05:44:38.838Z,1.47
2023-02-11T05:46:41.961Z,1.48
2023-02-11T05:48:45.120Z,1.51
2023-02-11T05:50:49.514Z,1.50
2023-02-11T05:52:52.525Z,1.47
2023-02-11T05:54:55.811Z,1.45
2023-02-11T05:56:58.856Z,1.42
2023-02-11T05:59:01.902Z,1.35
2023-02-11T06:01:05.188Z,1.40
2023-02-11T06:03:08.231Z,1.40
2023-02-11T06:05:11.354Z,1.42
2023-02-11T06:07:15.773Z,1.43
2023-02-11T06:09:18.725Z,1.43
2023-02-11T06:11:21.721Z,1.45
2023-02-11T06:13:24.812Z,1.48
2023-02-11T06:15:29.864Z,1.50
2023-02-11T06:17:33.782Z,1.51
2023-02-11T06:19:37.072Z,1.50
2023-02-11T06:21:44.199Z,1.51
2023-02-11T06:23:49.133Z,1.52
2023-02-11T06:25:52.644Z,1.50
2023-02-11T06:27:56.239Z,1.50
2023-02-11T06:29:59.448Z,1.55
2023-02-11T06:32:02.681Z,1.56
2023-02-11T06:34:06.102Z,1.57
2023-02-11T06:36:14.646Z,1.55
2023-02-11T06:38:17.705Z,1.54
2023-02-11T06:40:22.130Z,1.53
2023-02-11T06:42:25.206Z,1.57
2023-02-11T06:44:28.336Z,1.59
2023-02-11T06:46:31.476Z,1.61
2023-02-11T06:48:34.863Z,1.62
2023-02-11T06:50:38.010Z,1.64
2023-02-11T06:52:41.537Z,1.65
2023-02-11T06:54:44.664Z,1.67
2023-02-11T06:56:49.205Z,1.70
2023-02-11T06:58:54.669Z,1.72
2023-02-11T07:00:57.861Z,1.73
2023-02-11T07:03:01.010Z,1.75
2023-02-11T07:05:04.285Z,1.75
2023-02-11T07:07:07.446Z,1.78
2023-02-11T07:09:10.721Z,1.78
2023-02-11T07:11:16.391Z,1.78
2023-02-11T07:13:20.863Z,1.76
2023-02-11T07:15:23.886Z,1.77
2023-02-11T07:17:26.962Z,1.78
2023-02-11T07:19:29.973Z,1.81
2023-02-11T07:21:33.146Z,1.82
2023-02-11T07:23:37.233Z,1.82
2023-02-11T07:25:40.352Z,1.85
2023-02-11T07:27:43.426Z,1.91
2023-02-11T07:29:48.654Z,1.92
2023-02-11T07:31:51.768Z,1.93
2023-02-11T07:33:55.912Z,1.98
2023-02-11T07:36:01.380Z,2.02
2023-02-11T07:38:04.386Z,2.05
2023-02-11T07:40:08.299Z,2.09
2023-02-11T07:42:11.326Z,2.14
2023-02-11T07:44:14.382Z,2.18
2023-02-11T07:46:20.288Z,2.32
2023-02-11T07:48:23.332Z,2.40
2023-02-11T07:50:26.475Z,2.48
2023-02-11T07:52:30.780Z,2.64
2023-02-11T07:54:33.832Z,2.75
2023-02-11T07:56:37.003Z,2.87
2023-02-11T07:58:42.105Z,2.91
2023-02-11T08:00:45.798Z,2.87
2023-02-11T08:02:50.369Z,2.88
2023-02-11T08:04:53.415Z,2.90
2023-02-11T08:06:58.956Z,2.94
2023-02-11T08:09:05.769Z,3.03
2023-02-11T08:11:09.420Z,3.06
2023-02-11T08:13:12.538Z,3.11
2023-02-11T08:15:17.191Z,3.15
2023-02-11T08:17:20.346Z,3.25
2023-02-11T08:19:24.816Z,3.37
2023-02-11T08:21:28.433Z,3.42
2023-02-11T08:23:31.532Z,3.52
2023-02-11T08:25:34.603Z,3.56
2023-02-11T08:27:37.729Z,3.55
2023-02-11T08:29:40.838Z,3.57
2023-02-11T08:31:46.606Z,3.88
2023-02-11T08:33:50.126Z,4.26
2023-02-11T08:35:54.864Z,4.41
2023-02-11T08:37:58.054Z,4.49
2023-02-11T08:40:01.366Z,4.62
2023-02-11T08:42:04.837Z,4.60
2023-02-11T08:44:08.019Z,4.55
2023-02-11T08:46:11.721Z,4.63
2023-02-11T08:48:14.872Z,4.71
2023-02-11T08:50:18.135Z,4.76
2023-02-11T08:52:22.684Z,4.85
2023-02-11T08:54:25.933Z,5.03
2023-02-11T08:56:31.384Z,5.20
2023-02-11T08:58:34.608Z,5.31
2023-02-11T09:00:37.831Z,5.36
2023-02-11T09:02:41.006Z,5.45
2023-02-11T09:04:44.104Z,5.74
2023-02-11T09:06:47.343Z,5.85
2023-02-11T09:08:53.737Z,5.94
2023-02-11T09:10:57.693Z,6.16
2023-02-11T09:13:01.023Z,6.20
2023-02-11T09:15:04.038Z,6.30
2023-02-11T09:17:07.183Z,6.43
2023-02-11T09:19:10.680Z,6.68
2023-02-11T09:21:14.480Z,6.98
2023-02-11T09:23:18.635Z,7.22
2023-02-11T09:25:22.950Z,7.40
2023-02-11T09:27:25.996Z,7.64
2023-02-11T09:29:29.161Z,7.85
2023-02-11T09:31:33.668Z,7.87
2023-02-11T09:33:37.047Z,7.71
2023-02-11T09:35:41.083Z,7.52
2023-02-11T09:37:44.044Z,7.36
2023-02-11T09:39:47.200Z,7.14
2023-02-11T09:42:08.438Z,6.94
2023-02-11T09:44:19.580Z,6.80
2023-02-11T09:46:23.063Z,6.76
2023-02-11T09:48:26.247Z,6.80
2023-02-11T09:50:32.262Z,6.92
2023-02-11T09:52:39.277Z,7.03
2023-02-11T09:54:50.737Z,7.18
2023-02-11T09:56:53.895Z,7.39
2023-02-11T09:58:58.357Z,7.47
2023-02-11T10:01:06.816Z,7.50
2023-02-11T10:03:21.632Z,7.52
2023-02-11T10:05:34.903Z,7.52
2023-02-11T10:07:41.855Z,7.57
2023-02-11T10:10:01.905Z,7.73
2023-02-11T10:12:16.970Z,7.91
2023-02-11T10:14:30.243Z,8.12
2023-02-11T10:16:43.184Z,8.27
2023-02-11T10:19:05.290Z,8.34
2023-02-11T10:21:16.566Z,8.32
2023-02-11T10:23:22.574Z,8.32
2023-02-11T10:25:27.952Z,8.40
2023-02-11T10:27:35.055Z,8.48
2023-02-11T10:29:42.064Z,8.58
2023-02-11T10:31:46.227Z,8.70
2023-02-11T10:33:54.797Z,8.79
2023-02-11T10:35:58.091Z,8.92
2023-02-11T10:38:01.720Z,8.94
2023-02-11T10:40:05.484Z,9.04
2023-02-11T10:42:12.085Z,8.95
2023-02-11T10:44:24.801Z,8.98
2023-02-11T10:46:33.585Z,8.95
2023-02-11T10:48:40.290Z,8.94
2023-02-11T10:50:43.482Z,8.96
2023-02-11T10:52:46.570Z,9.09
2023-02-11T10:55:01.424Z,9.24
2023-02-11T10:57:04.847Z,9.24
2023-02-11T10:59:14.841Z,9.19
2023-02-11T11:01:24.376Z,9.24
2023-02-11T11:03:33.385Z,9.29
2023-02-11T11:05:38.446Z,9.35
2023-02-11T11:07:53.138Z,9.39
2023-02-11T11:09:59.678Z,9.34
2023-02-11T11:12:02.809Z,9.23
2023-02-11T11:14:06.046Z,9.31
2023-02-11T11:16:22.302Z,9.37
2023-02-11T11:18:25.440Z,9.48
2023-02-11T11:20:35.353Z,9.57
2023-02-11T11:22:39.219Z,9.66
2023-02-11T11:24:46.731Z,9.83
2023-02-11T11:26:52.845Z,9.94
2023-02-11T11:28:59.095Z,9.99
2023-02-11T11:31:02.509Z,10.10
2023-02-11T11:33:05.767Z,10.10
2023-02-11T11:35:23.129Z,10.06
2023-02-11T11:37:29.418Z,10.06
2023-02-11T11:39:34.321Z,10.12
2023-02-11T11:41:37.479Z,10.24
2023-02-11T11:43:40.715Z,10.31
2023-02-11T11:45:55.542Z,10.33
2023-02-11T11:48:01.109Z,10.42
2023-02-11T11:50:17.705Z,10.53
2023-02-11T11:52:42.939Z,10.70
2023-02-11T11:54:50.463Z,10.54
2023-02-11T11:56:57.265Z,10.45
2023-02-11T11:59:01.999Z,10.39
2023-02-11T12:01:16.470Z,10.34
2023-02-11T12:03:59.944Z,10.35
2023-02-11T12:06:14.574Z,10.37
2023-02-11T12:08:24.990Z,10.40
2023-02-11T12:10:42.413Z,10.43
2023-02-11T12:12:50.289Z,10.44
2023-02-11T12:15:00.184Z,10.46
2023-02-11T12:17:07.818Z,10.49
2023-02-11T12:19:26.625Z,10.49
2023-02-11T12:21:36.154Z,10.41
2023-02-11T12:23:47.603Z,10.11
2023-02-11T12:25:55.575Z,9.98
2023-02-11T12:28:18.087Z,9.91
2023-02-11T12:30:35.594Z,9.92
2023-02-11T12:32:46.206Z,9.87
2023-02-11T12:35:18.551Z,9.81
2023-02-11T12:37:31.468Z,9.82
2023-02-11T12:39:45.478Z,9.83
2023-02-11T12:42:21.343Z,9.84
2023-02-11T12:44:30.804Z,9.85
2023-02-11T12:46:39.106Z,9.88
2023-02-11T12:48:57.752Z,9.90
2023-02-11T12:51:06.623Z,9.93
2023-02-11T12:53:23.777Z,9.96
2023-02-11T12:55:29.705Z,10.00
2023-02-11T12:57:34.573Z,10.02
2023-02-11T12:59:45.681Z,10.04
2023-02-11T13:01:50.125Z,9.93
2023-02-11T13:03:56.036Z,9.96
2023-02-11T13:06:02.101Z,10.01
2023-02-11T13:08:10.196Z,10.06
2023-02-11T13:10:23.667Z,10.03
2023-02-11T13:12:46.294Z,10.08
2023-02-11T13:14:51.210Z,10.14
2023-02-11T13:16:54.697Z,10.20
2023-02-11T13:19:03.787Z,10.27
2023-02-11T13:21:21.035Z,10.32
2023-02-11T13:23:29.969Z,10.39
2023-02-11T13:25:37.874Z,10.46
2023-02-11T13:27:45.425Z,10.52
2023-02-11T13:30:15.840Z,10.58
2023-02-11T13:32:18.967Z,10.62
2023-02-11T13:34:25.969Z,10.65
2023-02-11T13:36:30.269Z,10.67
2023-02-11T13:38:33.957Z,10.68
2023-02-11T13:40:38.554Z,10.67
2023-02-11T13:42:51.654Z,10.77
2023-02-11T13:44:55.326Z,10.85
2023-02-11T13:47:01.384Z,10.95
2023-02-11T13:49:04.558Z,11.00
2023-02-11T13:51:09.517Z,11.04
2023-02-11T13:53:15.061Z,11.08
2023-02-11T13:55:23.422Z,11.05
2023-02-11T13:57:36.449Z,10.95
2023-02-11T13:59:48.477Z,11.06
2023-02-11T14:02:23.841Z,11.16
2023-02-11T14:04:47.373Z,11.21
2023-02-11T14:07:42.960Z,11.23
2023-02-11T14:09:46.135Z,11.23
2023-02-11T14:11:51.377Z,11.24
2023-02-11T14:14:15.425Z,11.23
2023-02-11T14:16:36.469Z,11.20
2023-02-11T14:19:01.857Z,11.19
2023-02-11T14:21:13.150Z,11.19
2023-02-11T14:23:25.720Z,11.20
2023-02-11T14:25:28.971Z,11.17
2023-02-11T14:27:37.565Z,11.03
2023-02-11T14:29:45.338Z,10.96
2023-02-11T14:31:56.191Z,10.86
2023-02-11T14:34:07.743Z,10.79
2023-02-11T14:36:21.278Z,10.78
2023-02-11T14:38:29.492Z,10.76
2023-02-11T14:40:35.269Z,10.69
2023-02-11T14:42:39.496Z,10.60
2023-02-11T14:44:43.062Z,10.53
2023-02-11T14:46:47.214Z,10.48
2023-02-11T14:48:53.793Z,10.42
2023-02-11T14:51:01.881Z,10.42
2023-02-11T14:53:06.281Z,10.46
2023-02-11T14:55:18.066Z,10.43
2023-02-11T14:57:21.973Z,10.41
2023-02-11T14:59:25.010Z,10.38
2023-02-11T15:01:31.832Z,10.40
2023-02-11T15:03:36.974Z,10.43
2023-02-11T15:05:41.587Z,10.44
2023-02-11T15:07:46.817Z,10.46
2023-02-11T15:09:52.046Z,10.45
2023-02-11T15:11:55.579Z,10.43
2023-02-11T15:14:01.183Z,10.37
2023-02-11T15:16:08.089Z,10.36
2023-02-11T15:18:21.388Z,10.34
2023-02-11T15:20:28.121Z,10.31
2023-02-11T15:22:36.538Z,10.25
2023-02-11T15:24:40.593Z,10.23
2023-02-11T15:26:43.701Z,10.23
2023-02-11T15:28:51.928Z,10.26
2023-02-11T15:30:59.615Z,10.19
2023-02-11T15:33:05.864Z,10.12
2023-02-11T15:35:13.678Z,10.20
2023-02-11T15:37:21.803Z,10.16
2023-02-11T15:39:34.277Z,10.11
2023-02-11T15:41:38.785Z,10.07
2023-02-11T15:43:43.470Z,10.04
2023-02-11T15:45:56.160Z,10.01
2023-02-11T15:48:01.373Z,9.97
2023-02-11T15:50:04.665Z,9.97
2023-02-11T15:52:08.945Z,9.97
2023-02-11T15:54:18.458Z,9.93
2023-02-11T15:56:25.795Z,9.92
2023-02-11T15:58:28.989Z,9.90
2023-02-11T16:00:36.280Z,9.90
2023-02-11T16:02:45.132Z,9.91
2023-02-11T16:04:53.415Z,9.88
2023-02-11T16:06:57.126Z,9.87
2023-02-11T16:09:02.448Z,9.78
2023-02-11T16:11:09.101Z,9.62
2023-02-11T16:13:20.816Z,9.50
2023-02-11T16:15:43.303Z,9.45
2023-02-11T16:17:46.481Z,9.42
2023-02-11T16:19:51.193Z,9.41
2023-02-11T16:21:54.907Z,9.40
2023-02-11T16:23:58.785Z,9.42
2023-02-11T16:26:08.502Z,9.41
2023-02-11T16:28:15.223Z,9.41
2023-02-11T16:30:30.317Z,9.43
2023-02-11T16:32:33.475Z,9.44
2023-02-11T16:34:37.223Z,9.38
2023-02-11T16:36:40.420Z,9.39
2023-02-11T16:38:43.901Z,9.40
2023-02-11T16:40:49.357Z,9.41
2023-02-11T16:42:53.550Z,9.41
2023-02-11T16:44:56.744Z,9.41
2023-02-11T16:47:03.203Z,9.41
2023-02-11T16:49:11.602Z,9.41
2023-02-11T16:51:14.687Z,9.40
2023-02-11T16:53:22.675Z,9.38
2023-02-11T16:55:25.816Z,9.36
2023-02-11T16:57:30.440Z,9.37
2023-02-11T16:59:33.732Z,9.37
2023-02-11T17:01:37.489Z,9.38
2023-02-11T17:03:43.630Z,9.39
2023-02-11T17:05:55.326Z,9.38
2023-02-11T17:08:00.888Z,9.38
2023-02-11T17:10:04.067Z,9.37
2023-02-11T17:12:07.872Z,9.34
2023-02-11T17:14:11.152Z,9.33
2023-02-11T17:16:20.014Z,9.30
2023-02-11T17:18:23.270Z,9.26
2023-02-11T17:20:27.916Z,9.21
2023-02-11T17:22:31.075Z,9.18
2023-02-11T17:24:34.197Z,9.14
2023-02-11T17:26:37.344Z,9.12
2023-02-11T17:28:40.496Z,9.13
2023-02-11T17:30:44.182Z,9.15
2023-02-11T17:32:47.420Z,9.16
2023-02-11T17:34:50.555Z,9.17
2023-02-11T17:36:55.090Z,9.18
2023-02-11T17:38:58.874Z,9.19
2023-02-11T17:41:03.286Z,9.19
2023-02-11T17:43:06.686Z,9.20
2023-02-11T17:45:10.834Z,9.21
2023-02-11T17:47:14.056Z,9.20
2023-02-11T17:49:17.632Z,9.20
2023-02-11T17:51:24.778Z,9.19
2023-02-11T17:53:29.434Z,9.20
2023-02-11T17:55:34.134Z,9.19
2023-02-11T17:57:37.420Z,9.19
2023-02-11T17:59:41.002Z,9.18
2023-02-11T18:01:44.673Z,9.16
2023-02-11T18:03:47.975Z,9.16
2023-02-11T18:05:51.484Z,9.13
2023-02-11T18:07:55.869Z,9.11
2023-02-11T18:10:00.330Z,9.08
2023-02-11T18:12:03.490Z,9.06
2023-02-11T18:14:07.909Z,9.03
2023-02-11T18:16:15.546Z,9.00
2023-02-11T18:18:18.845Z,8.96
2023-02-11T18:20:22.175Z,8.96
2023-02-11T18:22:25.916Z,8.99
2023-02-11T18:24:28.994Z,9.00
2023-02-11T18:26:33.551Z,8.99
2023-02-11T18:28:36.725Z,8.92
2023-02-11T18:30:39.976Z,8.73
2023-02-11T18:32:43.147Z,8.66
2023-02-11T18:34:46.272Z,8.66
2023-02-11T18:36:49.900Z,8.62
2023-02-11T18:38:54.309Z,8.58
2023-02-11T18:40:58.749Z,8.56
2023-02-11T18:43:03.324Z,8.56
2023-02-11T18:45:09.377Z,8.54
2023-02-11T18:47:12.588Z,8.51
2023-02-11T18:49:16.185Z,8.51
2023-02-11T18:51:19.697Z,8.53
2023-02-11T18:53:23.285Z,8.55
2023-02-11T18:55:26.518Z,8.56
2023-02-11T18:57:29.717Z,8.58
2023-02-11T18:59:34.574Z,8.58
2023-02-11T19:01:40.005Z,8.59
2023-02-11T19:03:43.426Z,8.57
2023-02-11T19:05:48.335Z,8.57
2023-02-11T19:07:51.548Z,8.58
2023-02-11T19:09:54.964Z,8.59
2023-02-11T19:11:59.839Z,8.59
2023-02-11T19:14:10.129Z,8.58
2023-02-11T19:16:16.827Z,8.58
2023-02-11T19:18:19.953Z,8.59
2023-02-11T19:20:22.978Z,8.56
2023-02-11T19:22:26.080Z,8.53
2023-02-11T19:24:30.409Z,8.49
2023-02-11T19:26:33.530Z,8.49
2023-02-11T19:28:37.476Z,8.44
2023-02-11T19:30:40.591Z,8.43
2023-02-11T19:32:45.148Z,8.42
2023-02-11T19:34:48.471Z,8.39
2023-02-11T19:36:51.760Z,8.31
2023-02-11T19:38:55.355Z,8.22
2023-02-11T19:40:58.811Z,8.19
2023-02-11T19:43:02.024Z,8.17
2023-02-11T19:45:07.332Z,8.11
2023-02-11T19:47:12.604Z,8.08
2023-02-11T19:49:22.820Z,8.09
2023-02-11T19:51:26.011Z,8.08
2023-02-11T19:53:29.150Z,8.04
2023-02-11T19:55:32.425Z,8.06
2023-02-11T19:57:35.596Z,8.08
2023-02-11T19:59:38.788Z,8.08
2023-02-11T20:01:42.502Z,8.11
2023-02-11T20:03:47.319Z,8.12
2023-02-11T20:05:51.992Z,8.17
2023-02-11T20:07:55.388Z,8.19
2023-02-11T20:09:58.773Z,8.21
2023-02-11T20:12:01.946Z,8.21
2023-02-11T20:14:06.727Z,8.22
2023-02-11T20:16:12.432Z,8.24
2023-02-11T20:18:15.618Z,8.22
2023-02-11T20:20:19.102Z,8.20
2023-02-11T20:22:23.522Z,8.21
2023-02-11T20:24:27.198Z,8.19
2023-02-11T20:26:31.571Z,8.19
2023-02-11T20:28:34.721Z,8.19
2023-02-11T20:30:39.150Z,8.18
2023-02-11T20:32:42.270Z,8.15
2023-02-11T20:34:45.427Z,8.16
2023-02-11T20:36:51.962Z,8.13
2023-02-11T20:38:56.834Z,8.11
2023-02-11T20:41:04.127Z,8.10
2023-02-11T20:43:07.324Z,8.06
2023-02-11T20:45:10.756Z,8.02
2023-02-11T20:47:13.887Z,8.00
2023-02-11T20:49:18.913Z,8.00
2023-02-11T20:51:24.796Z,7.97
2023-02-11T20:53:27.851Z,7.93
2023-02-11T20:55:32.313Z,7.91
2023-02-11T20:57:35.612Z,7.92
2023-02-11T20:59:38.769Z,7.91
2023-02-11T21:01:43.615Z,7.91
2023-02-11T21:03:50.844Z,7.93
2023-02-11T21:05:59.243Z,7.94
2023-02-11T21:08:02.260Z,7.93
2023-02-11T21:10:06.129Z,7.91
2023-02-11T21:12:10.611Z,7.89
2023-02-11T21:14:16.046Z,7.87
2023-02-11T21:16:21.357Z,7.86
2023-02-11T21:18:25.051Z,7.82
2023-02-11T21:20:28.089Z,7.79
2023-02-11T21:22:31.272Z,7.78
2023-02-11T21:24:34.393Z,7.77
2023-02-11T21:26:38.533Z,7.76
2023-02-11T21:28:43.033Z,7.75
2023-02-11T21:30:46.209Z,7.74
2023-02-11T21:32:49.339Z,7.72
2023-02-11T21:34:52.443Z,7.73
2023-02-11T21:36:55.561Z,7.71
2023-02-11T21:39:00.175Z,7.72
2023-02-11T21:41:06.994Z,7.70
2023-02-11T21:43:10.059Z,7.72
2023-02-11T21:45:14.579Z,7.74
2023-02-11T21:47:17.656Z,7.71
2023-02-11T21:49:21.427Z,7.68
2023-02-11T21:51:26.302Z,7.66
2023-02-11T21:53:29.378Z,7.62
2023-02-11T21:55:32.517Z,7.57
2023-02-11T21:57:35.662Z,7.54
2023-02-11T21:59:38.885Z,7.54
2023-02-11T22:01:43.359Z,7.53
2023-02-11T22:03:47.310Z,7.51
2023-02-11T22:05:50.400Z,7.50
2023-02-11T22:07:53.528Z,7.50
2023-02-11T22:09:56.599Z,7.51
2023-02-11T22:11:59.689Z,7.51
2023-02-11T22:14:02.701Z,7.52
2023-02-11T22:16:08.023Z,7.53
2023-02-11T22:18:12.660Z,7.46
2023-02-11T22:20:16.850Z,7.45
2023-02-11T22:22:19.925Z,7.44
2023-02-11T22:24:23.016Z,7.45
2023-02-11T22:26:27.765Z,7.41
2023-02-11T22:28:30.931Z,7.36
2023-02-11T22:30:34.194Z,7.30
2023-02-11T22:32:37.416Z,7.30
2023-02-11T22:34:41.866Z,7.32
2023-02-11T22:36:46.982Z,7.34
2023-02-11T22:38:50.360Z,7.35
2023-02-11T22:40:53.482Z,7.35
2023-02-11T22:42:56.651Z,7.37
2023-02-11T22:44:59.657Z,7.38
2023-02-11T22:47:02.654Z,7.37
2023-02-11T22:49:07.202Z,7.37
2023-02-11T22:51:13.376Z,7.40
2023-02-11T22:53:16.387Z,7.40
2023-02-11T22:55:19.519Z,7.37
2023-02-11T22:57:22.604Z,7.33
2023-02-11T22:59:25.744Z,7.32
2023-02-11T23:01:29.122Z,7.30
2023-02-11T23:03:32.868Z,7.30
2023-02-11T23:05:39.286Z,7.29
2023-02-11T23:07:43.652Z,7.29
2023-02-11T23:09:48.052Z,7.27
2023-02-11T23:11:54.357Z,7.29
2023-02-11T23:13:57.666Z,7.27
2023-02-11T23:16:00.747Z,7.26
2023-02-11T23:18:03.830Z,7.23
2023-02-11T23:20:08.019Z,7.21
2023-02-11T23:22:11.050Z,7.19
2023-02-11T23:24:16.080Z,7.17
2023-02-11T23:26:19.749Z,7.18
2023-02-11T23:28:23.002Z,7.18
2023-02-11T23:30:26.392Z,7.16
2023-02-11T23:32:29.496Z,7.16
2023-02-11T23:34:32.637Z,7.14
2023-02-11T23:36:35.886Z,7.14
2023-02-11T23:38:38.996Z,7.14
2023-02-11T23:40:43.701Z,7.14
2023-02-11T23:42:47.673Z,7.11
2023-02-11T23:44:50.782Z,7.09
2023-02-11T23:46:53.787Z,7.06
2023-02-11T23:48:56.865Z,7.06
2023-02-11T23:51:00.045Z,7.07
2023-02-11T23:53:03.119Z,7.06
2023-02-11T23:55:07.048Z,7.05
2023-02-11T23:57:11.576Z,7.04
2023-02-11T23:59:14.940Z,7.06
